createdAt,value
2017-12-13T00:00:34.139Z,0.50
2017-12-13T00:03:02.179Z,0.50
2017-12-13T00:05:30.675Z,0.50
2017-12-13T00:08:01.116Z,0.50
2017-12-13T00:10:29.312Z,0.50
2017-12-13T00:12:57.245Z,0.40
2017-12-13T00:15:25.026Z,0.50
2017-12-13T00:17:52.560Z,0.50
2017-12-13T00:22:54.257Z,0.40
2017-12-13T00:25:21.825Z,0.50
2017-12-13T00:27:49.392Z,0.50
2017-12-13T00:30:16.929Z,0.50
2017-12-13T00:32:44.654Z,0.50
2017-12-13T00:35:12.949Z,0.50
2017-12-13T00:37:40.486Z,0.50
2017-12-13T00:40:08.293Z,0.50
2017-12-13T00:42:36.094Z,0.50
2017-12-13T00:45:03.896Z,0.50
2017-12-13T00:47:34.115Z,0.50
2017-12-13T00:50:02.234Z,0.50
2017-12-13T00:52:30.316Z,0.40
2017-12-13T00:54:58.846Z,0.40
2017-12-13T00:57:26.738Z,0.50
2017-12-13T00:59:55.317Z,0.60
2017-12-13T01:02:23.030Z,0.60
2017-12-13T01:04:50.548Z,0.70
2017-12-13T01:07:18.065Z,0.70
2017-12-13T01:09:45.643Z,0.80
2017-12-13T01:12:13.971Z,0.80
2017-12-13T01:14:41.518Z,0.80
2017-12-13T01:17:09.079Z,0.80
2017-12-13T01:19:36.758Z,0.70
2017-12-13T01:22:04.557Z,0.70
2017-12-13T01:24:33.089Z,0.70
2017-12-13T01:27:01.548Z,0.70
2017-12-13T01:29:30.433Z,0.80
2017-12-13T01:31:59.336Z,0.80
2017-12-13T01:34:28.776Z,0.90
2017-12-13T01:36:56.527Z,0.90
2017-12-13T01:39:24.913Z,1.00
2017-12-13T01:41:52.462Z,1.00
2017-12-13T01:44:19.980Z,1.10
2017-12-13T01:46:48.297Z,1.20
2017-12-13T01:49:16.219Z,1.10
2017-12-13T01:51:44.512Z,1.20
2017-12-13T01:54:12.822Z,1.10
2017-12-13T01:56:40.362Z,1.20
2017-12-13T01:59:08.589Z,1.30
2017-12-13T02:01:36.432Z,1.10
2017-12-13T02:04:04.665Z,1.10
2017-12-13T02:06:32.478Z,1.20
2017-12-13T02:09:01.500Z,1.20
2017-12-13T02:11:31.174Z,1.30
2017-12-13T02:13:59.982Z,1.30
2017-12-13T02:16:28.253Z,1.30
2017-12-13T02:18:57.155Z,1.20
2017-12-13T02:21:25.595Z,1.20
2017-12-13T02:23:53.137Z,1.10
2017-12-13T02:26:21.420Z,1.10
2017-12-13T02:28:49.713Z,1.00
2017-12-13T02:31:17.270Z,1.00
2017-12-13T02:33:44.798Z,0.90
2017-12-13T02:36:12.315Z,1.00
2017-12-13T02:38:40.031Z,1.10
2017-12-13T02:41:08.560Z,1.10
2017-12-13T02:43:36.323Z,1.10
2017-12-13T02:46:04.088Z,1.20
2017-12-13T02:48:32.859Z,1.30
2017-12-13T02:51:01.691Z,1.20
2017-12-13T02:53:31.178Z,1.30
2017-12-13T02:55:59.986Z,1.30
2017-12-13T02:58:28.564Z,1.30
2017-12-13T03:00:56.140Z,1.50
2017-12-13T03:03:24.486Z,1.60
2017-12-13T03:05:52.015Z,1.60
2017-12-13T03:08:20.306Z,1.60
2017-12-13T03:10:47.842Z,1.60
2017-12-13T03:13:16.135Z,1.50
2017-12-13T03:15:44.455Z,1.50
2017-12-13T03:18:11.981Z,1.50
2017-12-13T03:20:39.524Z,1.50
2017-12-13T03:23:08.493Z,1.50
2017-12-13T03:25:36.321Z,1.40
2017-12-13T03:28:04.017Z,1.50
2017-12-13T03:30:32.774Z,1.50
2017-12-13T03:33:01.134Z,1.60
2017-12-13T03:35:31.237Z,1.80
2017-12-13T03:38:00.567Z,1.80
2017-12-13T03:40:30.726Z,1.90
2017-12-13T03:43:00.543Z,2.10
2017-12-13T03:45:29.812Z,2.20
2017-12-13T03:47:58.758Z,2.20
2017-12-13T03:50:28.005Z,2.10
2017-12-13T03:52:57.621Z,2.20
2017-12-13T03:55:25.958Z,2.20
2017-12-13T03:57:54.949Z,2.30
2017-12-13T04:00:22.532Z,2.30
2017-12-13T04:02:50.070Z,2.30
2017-12-13T04:05:18.399Z,2.30
2017-12-13T04:07:45.920Z,2.30
2017-12-13T04:10:13.445Z,2.30
2017-12-13T04:12:41.037Z,2.40
2017-12-13T04:15:08.701Z,2.40
2017-12-13T04:17:36.532Z,2.30
2017-12-13T04:20:04.256Z,2.30
2017-12-13T04:22:32.817Z,2.40
2017-12-13T04:25:01.841Z,2.40
2017-12-13T04:27:30.212Z,2.50
2017-12-13T04:29:58.777Z,2.50
2017-12-13T04:32:28.316Z,2.50
2017-12-13T04:34:56.375Z,2.50
2017-12-13T04:37:25.046Z,2.80
2017-12-13T04:39:52.568Z,2.70
2017-12-13T04:42:20.111Z,2.80
2017-12-13T04:44:47.672Z,2.70
2017-12-13T04:47:15.283Z,2.80
2017-12-13T04:49:43.037Z,2.80
2017-12-13T04:52:11.350Z,2.70
2017-12-13T04:54:38.929Z,2.70
2017-12-13T04:57:06.795Z,2.80
2017-12-13T04:59:35.182Z,2.60
2017-12-13T05:02:02.922Z,2.60
2017-12-13T05:04:31.654Z,2.70
2017-12-13T05:07:00.616Z,2.60
2017-12-13T05:09:28.979Z,2.60
2017-12-13T05:11:56.847Z,2.70
2017-12-13T05:14:25.219Z,2.70
2017-12-13T05:16:53.066Z,2.70
2017-12-13T05:19:21.597Z,2.60
2017-12-13T05:21:49.129Z,2.60
2017-12-13T05:24:16.662Z,2.50
2017-12-13T05:26:44.962Z,2.50
2017-12-13T05:29:12.484Z,2.50
2017-12-13T05:31:40.033Z,2.60
2017-12-13T05:34:08.458Z,2.70
2017-12-13T05:36:36.296Z,2.70
2017-12-13T05:39:04.109Z,2.80
2017-12-13T05:41:32.388Z,2.80
2017-12-13T05:44:01.687Z,2.80
2017-12-13T05:46:30.043Z,2.90
2017-12-13T05:49:00.003Z,2.90
2017-12-13T05:51:29.777Z,2.80
2017-12-13T05:53:58.989Z,2.80
2017-12-13T05:56:26.858Z,2.70
2017-12-13T05:58:54.499Z,2.80
2017-12-13T06:01:22.024Z,2.80
2017-12-13T06:03:49.566Z,2.90
2017-12-13T06:06:17.216Z,3.00
2017-12-13T06:08:44.755Z,3.00
2017-12-13T06:11:12.288Z,3.00
2017-12-13T06:13:40.581Z,3.00
2017-12-13T06:16:08.264Z,3.00
2017-12-13T06:18:36.130Z,3.20
2017-12-13T06:21:03.893Z,3.10
2017-12-13T06:23:32.265Z,3.20
2017-12-13T06:26:00.773Z,3.30
2017-12-13T06:28:28.788Z,3.30
2017-12-13T06:30:57.180Z,3.30
2017-12-13T06:33:24.765Z,3.40
2017-12-13T06:35:52.290Z,3.50
2017-12-13T06:38:20.587Z,3.50
2017-12-13T06:40:48.122Z,3.50
2017-12-13T06:43:16.407Z,3.50
2017-12-13T06:45:43.991Z,3.40
2017-12-13T06:48:11.546Z,3.40
2017-12-13T06:50:39.199Z,3.50
2017-12-13T06:53:07.081Z,3.50
2017-12-13T06:55:34.960Z,3.50
2017-12-13T06:58:02.726Z,3.50
2017-12-13T07:00:31.214Z,3.60
2017-12-13T07:02:59.153Z,3.70
2017-12-13T07:05:26.942Z,3.70
2017-12-13T07:07:54.495Z,3.70
2017-12-13T07:10:22.037Z,3.80
2017-12-13T07:12:49.591Z,3.90
2017-12-13T07:15:17.889Z,4.00
2017-12-13T07:17:45.441Z,4.00
2017-12-13T07:20:12.985Z,4.00
2017-12-13T07:22:41.291Z,4.10
2017-12-13T07:25:08.849Z,4.10
2017-12-13T07:27:36.697Z,4.10
2017-12-13T07:30:04.591Z,4.00
2017-12-13T07:32:32.556Z,4.00
2017-12-13T07:35:00.370Z,4.00
2017-12-13T07:37:29.113Z,4.10
2017-12-13T07:39:56.889Z,4.10
2017-12-13T07:42:24.713Z,4.10
2017-12-13T07:44:52.259Z,4.20
2017-12-13T07:47:20.856Z,4.30
2017-12-13T07:49:48.506Z,4.30
2017-12-13T07:52:16.828Z,4.40
2017-12-13T07:54:44.388Z,4.40
2017-12-13T07:57:11.986Z,4.50
2017-12-13T07:59:39.918Z,4.50
2017-12-13T08:02:09.078Z,4.60
2017-12-13T08:04:37.086Z,4.60
2017-12-13T08:07:04.863Z,4.70
2017-12-13T08:09:33.417Z,4.70
2017-12-13T08:12:01.398Z,4.70
2017-12-13T08:14:29.478Z,4.70
2017-12-13T08:16:57.215Z,4.60
2017-12-13T08:19:25.629Z,4.60
2017-12-13T08:21:53.162Z,4.60
2017-12-13T08:24:20.758Z,4.60
2017-12-13T08:26:48.403Z,4.70
2017-12-13T08:29:15.937Z,4.60
2017-12-13T08:31:43.489Z,4.50
2017-12-13T08:34:11.862Z,4.50
2017-12-13T08:36:40.153Z,4.50
2017-12-13T08:39:07.814Z,4.50
2017-12-13T08:41:35.494Z,4.50
2017-12-13T08:44:03.264Z,4.50
2017-12-13T08:46:31.045Z,4.40
2017-12-13T08:48:59.312Z,4.20
2017-12-13T08:51:27.474Z,4.10
2017-12-13T08:53:55.104Z,4.10
2017-12-13T08:56:23.484Z,4.10
2017-12-13T08:58:52.110Z,4.10
2017-12-13T09:01:19.888Z,4.10
2017-12-13T09:03:47.454Z,4.10
2017-12-13T09:06:14.982Z,4.20
2017-12-13T09:08:42.661Z,4.20
2017-12-13T09:11:10.181Z,4.10
2017-12-13T09:13:38.470Z,4.20
2017-12-13T09:16:06.090Z,4.20
2017-12-13T09:18:33.853Z,4.20
2017-12-13T09:21:02.508Z,4.20
2017-12-13T09:23:30.379Z,4.20
2017-12-13T09:25:58.269Z,4.30
2017-12-13T09:28:25.898Z,4.30
2017-12-13T09:30:53.720Z,4.30
2017-12-13T09:33:21.848Z,4.30
2017-12-13T09:35:50.967Z,4.30
2017-12-13T09:38:19.531Z,4.20
2017-12-13T09:40:47.099Z,4.10
2017-12-13T09:43:14.624Z,4.00
2017-12-13T09:45:42.191Z,3.90
2017-12-13T09:48:10.072Z,3.80
2017-12-13T09:50:37.626Z,3.90
2017-12-13T09:53:05.455Z,3.90
2017-12-13T09:55:34.147Z,3.90
2017-12-13T09:58:02.360Z,3.80
2017-12-13T10:00:31.220Z,4.00
2017-12-13T10:02:59.513Z,3.90
2017-12-13T10:05:27.601Z,4.00
2017-12-13T10:07:55.287Z,4.10
2017-12-13T10:10:23.346Z,4.10
2017-12-13T10:12:50.870Z,4.10
2017-12-13T10:15:18.394Z,4.10
2017-12-13T10:17:45.933Z,4.10
2017-12-13T10:20:13.465Z,4.10
2017-12-13T10:22:41.742Z,4.10
2017-12-13T10:25:09.686Z,4.10
2017-12-13T10:27:40.976Z,4.20
2017-12-13T10:30:09.410Z,4.20
2017-12-13T10:32:40.016Z,4.50
2017-12-13T10:35:07.961Z,4.50
2017-12-13T10:37:37.462Z,4.60
2017-12-13T10:40:05.989Z,4.70
2017-12-13T10:42:34.606Z,4.80
2017-12-13T10:45:02.379Z,4.80
2017-12-13T10:47:30.253Z,4.80
2017-12-13T10:49:59.423Z,4.80
2017-12-13T10:52:27.625Z,4.80
2017-12-13T10:54:55.398Z,4.90
2017-12-13T10:57:23.119Z,4.90
2017-12-13T10:59:50.905Z,4.90
2017-12-13T11:02:18.470Z,4.90
2017-12-13T11:04:46.061Z,4.90
2017-12-13T11:07:13.603Z,4.90
2017-12-13T11:09:41.135Z,4.90
2017-12-13T11:12:08.701Z,4.90
2017-12-13T11:14:36.363Z,4.90
2017-12-13T11:17:04.320Z,4.90
2017-12-13T11:19:31.974Z,4.80
2017-12-13T11:22:00.118Z,4.80
2017-12-13T11:24:27.863Z,4.80
2017-12-13T11:26:56.548Z,4.80
2017-12-13T11:29:24.139Z,4.80
2017-12-13T11:31:52.066Z,4.80
2017-12-13T11:34:20.806Z,4.90
2017-12-13T11:36:48.423Z,4.80
2017-12-13T11:39:15.979Z,4.80
2017-12-13T11:41:43.517Z,4.80
2017-12-13T11:44:11.083Z,4.80
2017-12-13T11:46:39.283Z,4.80
2017-12-13T11:49:08.059Z,4.80
2017-12-13T11:51:35.645Z,4.80
2017-12-13T11:54:05.911Z,4.90
2017-12-13T11:56:33.942Z,4.90
2017-12-13T11:59:02.086Z,4.90
2017-12-13T12:01:29.937Z,4.90
2017-12-13T12:03:57.907Z,4.90
2017-12-13T12:06:26.304Z,4.80
2017-12-13T12:08:55.201Z,4.90
2017-12-13T12:11:22.962Z,4.80
2017-12-13T12:13:50.776Z,4.90
2017-12-13T12:16:18.589Z,4.90
2017-12-13T12:18:46.119Z,4.80
2017-12-13T12:21:14.537Z,4.70
2017-12-13T12:23:43.705Z,4.70
2017-12-13T12:26:11.264Z,4.70
2017-12-13T12:28:39.549Z,4.60
2017-12-13T12:31:07.248Z,4.60
2017-12-13T12:33:35.521Z,4.60
2017-12-13T12:36:03.155Z,4.50
2017-12-13T12:38:31.595Z,4.50
2017-12-13T12:41:00.871Z,4.40
2017-12-13T12:43:28.919Z,4.40
2017-12-13T12:45:57.605Z,4.40
2017-12-13T12:48:25.130Z,4.30
2017-12-13T12:50:53.645Z,4.20
2017-12-13T12:53:21.641Z,4.20
2017-12-13T12:55:50.148Z,4.10
2017-12-13T12:58:17.777Z,4.10
2017-12-13T13:00:45.339Z,4.10
2017-12-13T13:03:12.891Z,4.10
2017-12-13T13:05:40.428Z,4.00
2017-12-13T13:08:08.107Z,4.00
2017-12-13T13:10:36.103Z,4.00
2017-12-13T13:13:04.130Z,4.00
2017-12-13T13:15:33.343Z,3.80
2017-12-13T13:18:01.638Z,3.80
2017-12-13T13:20:29.830Z,3.80
2017-12-13T13:22:57.974Z,3.80
2017-12-13T13:25:25.636Z,3.80
2017-12-13T13:27:53.175Z,3.80
2017-12-13T13:30:20.702Z,3.80
2017-12-13T13:32:48.234Z,3.70
2017-12-13T13:35:15.797Z,3.80
2017-12-13T13:37:43.529Z,3.80
2017-12-13T13:40:11.182Z,3.80
2017-12-13T13:42:39.001Z,3.80
2017-12-13T13:45:07.500Z,3.90
2017-12-13T13:47:36.130Z,4.00
2017-12-13T13:50:04.304Z,3.90
2017-12-13T13:52:32.509Z,4.10
2017-12-13T13:55:00.964Z,4.10
2017-12-13T13:57:28.951Z,4.20
2017-12-13T13:59:58.278Z,4.30
2017-12-13T14:02:25.932Z,4.30
2017-12-13T14:04:54.172Z,4.30
2017-12-13T14:07:21.716Z,4.40
2017-12-13T14:09:49.597Z,4.40
2017-12-13T14:12:17.962Z,4.40
2017-12-13T14:14:45.494Z,4.40
2017-12-13T14:17:13.801Z,4.40
2017-12-13T14:19:41.355Z,4.30
2017-12-13T14:22:11.357Z,4.40
2017-12-13T14:24:39.165Z,4.40
2017-12-13T14:27:07.363Z,4.40
2017-12-13T14:29:34.988Z,4.40
2017-12-13T14:32:03.271Z,4.40
2017-12-13T14:34:31.691Z,4.40
2017-12-13T14:36:59.606Z,4.40
2017-12-13T14:39:29.595Z,4.40
2017-12-13T14:41:58.222Z,4.40
2017-12-13T14:44:25.987Z,4.40
2017-12-13T14:46:55.542Z,4.40
2017-12-13T14:49:23.563Z,4.40
2017-12-13T14:51:51.438Z,4.40
2017-12-13T14:54:19.001Z,4.40
2017-12-13T14:56:46.547Z,4.40
2017-12-13T14:59:14.317Z,4.40
2017-12-13T15:01:42.622Z,4.40
2017-12-13T15:04:10.333Z,4.40
2017-12-13T15:06:38.210Z,4.40
2017-12-13T15:09:06.376Z,4.40
2017-12-13T15:11:35.600Z,4.30
2017-12-13T15:14:03.816Z,4.30
2017-12-13T15:16:32.152Z,4.30
2017-12-13T15:18:59.855Z,4.20
2017-12-13T15:21:29.193Z,4.30
2017-12-13T15:23:57.452Z,4.30
2017-12-13T15:26:25.187Z,4.20
2017-12-13T15:28:52.754Z,4.20
2017-12-13T15:31:20.308Z,4.20
2017-12-13T15:33:47.878Z,4.20
2017-12-13T15:36:15.415Z,4.20
2017-12-13T15:38:43.163Z,4.20
2017-12-13T15:41:10.922Z,4.20
2017-12-13T15:43:38.559Z,4.20
2017-12-13T15:46:06.560Z,4.30
2017-12-13T15:48:34.445Z,4.20
2017-12-13T15:51:02.610Z,4.30
2017-12-13T15:53:30.768Z,4.20
2017-12-13T15:55:59.420Z,4.20
2017-12-13T15:58:28.253Z,4.20
2017-12-13T16:00:55.801Z,4.20
2017-12-13T16:03:23.345Z,4.20
2017-12-13T16:05:50.875Z,4.30
2017-12-13T16:08:19.175Z,4.30
2017-12-13T16:10:47.494Z,4.30
2017-12-13T16:13:15.021Z,4.30
2017-12-13T16:15:42.968Z,4.30
2017-12-13T16:18:11.676Z,4.30
2017-12-13T16:20:40.699Z,4.20
2017-12-13T16:23:08.951Z,4.20
2017-12-13T16:25:37.153Z,4.20
2017-12-13T16:28:04.879Z,4.30
2017-12-13T16:30:33.373Z,4.30
2017-12-13T16:33:01.933Z,4.30
2017-12-13T16:35:29.599Z,4.30
2017-12-13T16:37:58.532Z,4.30
2017-12-13T16:40:26.299Z,4.30
2017-12-13T16:42:54.881Z,4.40
2017-12-13T16:45:22.421Z,4.30
2017-12-13T16:47:49.999Z,4.30
2017-12-13T16:50:17.534Z,4.40
2017-12-13T16:52:45.107Z,4.40
2017-12-13T16:55:13.819Z,4.50
2017-12-13T16:57:41.433Z,4.50
2017-12-13T17:00:09.765Z,4.50
2017-12-13T17:02:37.615Z,4.50
2017-12-13T17:05:05.706Z,4.50
2017-12-13T17:07:33.985Z,4.60
2017-12-13T17:10:02.504Z,4.60
2017-12-13T17:12:31.298Z,4.70
2017-12-13T17:14:59.856Z,4.70
2017-12-13T17:17:29.635Z,4.70
2017-12-13T17:19:59.045Z,4.80
2017-12-13T17:22:31.420Z,4.80
2017-12-13T17:25:03.963Z,4.80
2017-12-13T17:27:36.322Z,4.80
2017-12-13T17:30:04.664Z,4.90
2017-12-13T17:32:33.446Z,5.00
2017-12-13T17:35:03.383Z,4.90
2017-12-13T17:37:32.235Z,4.90
2017-12-13T17:40:01.914Z,5.00
2017-12-13T17:42:30.642Z,5.00
2017-12-13T17:44:58.822Z,5.10
2017-12-13T17:47:29.642Z,5.10
2017-12-13T17:49:59.558Z,5.20
2017-12-13T17:52:30.518Z,5.20
2017-12-13T17:54:59.833Z,5.20
2017-12-13T17:57:28.518Z,5.20
2017-12-13T17:59:59.729Z,5.30
2017-12-13T18:02:28.415Z,5.40
2017-12-13T18:04:59.766Z,5.30
2017-12-13T18:07:27.735Z,5.40
2017-12-13T18:09:59.773Z,5.40
2017-12-13T18:12:30.098Z,5.40
2017-12-13T18:15:00.170Z,5.40
2017-12-13T18:17:34.302Z,5.40
2017-12-13T18:20:06.793Z,5.40
2017-12-13T18:22:38.140Z,5.50
2017-12-13T18:25:07.790Z,5.40
2017-12-13T18:27:37.008Z,5.40
2017-12-13T18:30:04.959Z,5.30
2017-12-13T18:32:33.670Z,5.40
2017-12-13T18:35:02.382Z,5.40
2017-12-13T18:37:30.959Z,5.40
2017-12-13T18:40:00.637Z,5.60
2017-12-13T18:42:29.169Z,5.50
2017-12-13T18:44:59.572Z,5.60
2017-12-13T18:47:28.406Z,5.70
2017-12-13T18:49:59.172Z,5.60
2017-12-13T18:52:29.427Z,5.60
2017-12-13T18:55:02.172Z,5.70
2017-12-13T18:57:32.368Z,5.80
2017-12-13T19:00:03.950Z,5.90
2017-12-13T19:02:32.832Z,5.90
2017-12-13T19:05:01.072Z,5.80
2017-12-13T19:07:29.388Z,5.80
2017-12-13T19:09:59.815Z,6.00
2017-12-13T19:12:29.466Z,6.10
2017-12-13T19:15:00.119Z,6.10
2017-12-13T19:17:31.413Z,5.90
2017-12-13T19:20:01.697Z,5.90
2017-12-13T19:22:32.161Z,5.90
2017-12-13T19:25:03.203Z,5.80
2017-12-13T19:27:34.843Z,5.80
2017-12-13T19:30:03.338Z,5.80
2017-12-13T19:32:31.684Z,5.80
2017-12-13T19:35:02.262Z,5.80
2017-12-13T19:37:32.491Z,5.80
2017-12-13T19:40:02.679Z,5.80
2017-12-13T19:42:32.591Z,5.80
2017-12-13T19:45:01.614Z,5.90
2017-12-13T19:47:32.243Z,5.90
2017-12-13T19:50:03.994Z,5.90
2017-12-13T19:52:33.510Z,5.90
2017-12-13T19:55:03.482Z,6.00
2017-12-13T19:57:32.789Z,5.90
2017-12-13T20:00:02.566Z,5.80
2017-12-13T20:02:31.795Z,5.80
2017-12-13T20:05:02.511Z,5.90
2017-12-13T20:07:33.216Z,6.00
2017-12-13T20:10:03.206Z,5.90
2017-12-13T20:12:33.307Z,5.90
2017-12-13T20:15:19.779Z,5.90
2017-12-13T20:17:47.310Z,5.90
2017-12-13T20:20:14.840Z,6.00
2017-12-13T20:22:42.892Z,6.00
2017-12-13T20:25:10.447Z,6.00
2017-12-13T20:27:38.989Z,6.00
2017-12-13T20:30:07.566Z,6.00
2017-12-13T20:32:35.524Z,6.00
2017-12-13T20:35:03.298Z,6.10
2017-12-13T20:37:31.787Z,6.10
2017-12-13T20:39:59.993Z,6.20
2017-12-13T20:42:29.039Z,6.20
2017-12-13T20:44:57.009Z,6.30
2017-12-13T20:47:25.701Z,6.30
2017-12-13T20:49:53.567Z,6.30
2017-12-13T20:52:21.596Z,6.30
2017-12-13T20:54:49.957Z,6.40
2017-12-13T20:57:17.529Z,6.40
2017-12-13T20:59:45.867Z,6.60
2017-12-13T21:02:13.430Z,6.60
2017-12-13T21:04:41.026Z,6.70
2017-12-13T21:07:09.417Z,6.60
2017-12-13T21:09:37.108Z,6.60
2017-12-13T21:12:04.798Z,6.50
2017-12-13T21:14:32.560Z,6.50
2017-12-13T21:17:00.389Z,6.40
2017-12-13T21:19:28.962Z,6.40
2017-12-13T21:21:57.034Z,6.40
2017-12-13T21:24:24.590Z,6.40
2017-12-13T21:26:52.887Z,6.40
2017-12-13T21:29:20.445Z,6.30
2017-12-13T21:31:47.978Z,6.40
2017-12-13T21:34:15.517Z,6.40
2017-12-13T21:36:43.103Z,6.40
2017-12-13T21:39:10.619Z,6.50
2017-12-13T21:41:38.262Z,6.50
2017-12-13T21:44:06.344Z,6.50
2017-12-13T21:46:33.899Z,6.50
2017-12-13T21:49:01.972Z,6.50
2017-12-13T21:51:30.912Z,6.40
2017-12-13T21:54:00.094Z,6.50
2017-12-13T21:56:27.936Z,6.40
2017-12-13T21:58:56.438Z,6.50
2017-12-13T22:01:23.986Z,6.50
2017-12-13T22:03:51.782Z,6.40
2017-12-13T22:06:20.323Z,6.30
2017-12-13T22:08:47.855Z,6.30
2017-12-13T22:11:16.146Z,6.20
2017-12-13T22:13:43.690Z,6.20
2017-12-13T22:16:11.999Z,6.20
2017-12-13T22:18:39.662Z,6.20
2017-12-13T22:21:07.220Z,6.20
2017-12-13T22:23:34.882Z,6.10
2017-12-13T22:26:02.969Z,6.10
2017-12-13T22:28:30.649Z,6.10
2017-12-13T22:31:00.428Z,5.80
2017-12-13T22:33:28.500Z,5.80
2017-12-13T22:35:57.187Z,5.60
2017-12-13T22:38:24.836Z,5.50
2017-12-13T22:40:52.604Z,5.20
2017-12-13T22:43:20.248Z,5.20
2017-12-13T22:45:48.546Z,5.10
2017-12-13T22:48:16.084Z,5.10
2017-12-13T22:50:43.667Z,5.30
2017-12-13T22:53:11.304Z,5.40
2017-12-13T22:55:39.841Z,5.40
2017-12-13T22:58:07.464Z,5.40
2017-12-13T23:00:46.979Z,5.40
2017-12-13T23:03:15.282Z,5.20
2017-12-13T23:05:42.829Z,5.20
2017-12-13T23:08:10.421Z,5.10
2017-12-13T23:10:38.092Z,5.00
2017-12-13T23:13:05.693Z,4.80
2017-12-13T23:15:33.829Z,4.70
2017-12-13T23:18:01.895Z,4.70
2017-12-13T23:20:29.847Z,4.70
2017-12-13T23:22:57.904Z,4.70
2017-12-13T23:25:25.443Z,4.60
2017-12-13T23:27:53.745Z,4.50
2017-12-13T23:30:21.270Z,4.50
2017-12-13T23:32:48.830Z,4.40
2017-12-13T23:35:16.378Z,4.30
2017-12-13T23:37:43.902Z,4.30
2017-12-13T23:40:11.438Z,4.20
2017-12-13T23:42:39.728Z,4.10
2017-12-13T23:45:07.299Z,4.10
2017-12-13T23:47:34.845Z,4.20
2017-12-13T23:50:02.499Z,4.40
2017-12-13T23:52:30.304Z,4.40
2017-12-13T23:54:59.288Z,4.40
2017-12-13T23:57:27.062Z,4.40
2017-12-13T23:59:55.387Z,4.50
